Airfield :
LOGIN :

Register | Disclaimer

   EN    FR    IT 

 










Legend :    VFR   Marginal VFR   IFR   Intensive IFR   Very Intensive IFR
Visi :
Ceiling :
>= 8 km
>= 3000ft
5 to 8 km
1000 to 3000 ft
1500m to 5 km
500 to 1000 ft
800 to 1500m
200 to 500 ft
< 800m
< 200 ft
Symbols :   Thunderstorms  Fog  Heavy snow  Heavy precipitations  Wind > 20 kt
SIGMETs :     Misc.  Thunderstorms  Icing  Turbulence  Mountain Waves  Volcanic Ashes







- Airport Elevation : 458 ft
- Download approach charts


LFSI - St-Dizier

CURRENT METAR :
  • 171100Z AUTO 31012KT 280V340 9999 FEW027 BKN094 BKN130 23/15 Q1018

EXPIRED METARs :
  • 171030Z AUTO 32011KT 290V350 9999 FEW027 BKN100 BKN130 22/15 Q1018
  • 171000Z AUTO 32010KT 290V360 9999 FEW026 BKN096 BKN240 23/15 Q1018
  • 170930Z AUTO 31010KT 280V350 CAVOK 22/15 Q1018
  • 170900Z AUTO 34010KT 310V020 CAVOK 22/15 Q1018
  • 170830Z AUTO 32010KT 280V010 9999 BKN022 BKN080 BKN240 22/15 Q1018

TAF TAF LFSI
Valid from the 17 at 09:00 until the 18 at 09:00 UTC


170800Z 1709/1809 32010KT CAVOK
TEMPO 1709/1711 BKN010
PROB30
TEMPO 1709/1711 BKN010 BKN070TCU
No reported NOTAMs for that airfield.
1 SIGMET reported for the Paris FIR (LFFF) :
 
Severe turbulence
LFFF SIGMET 6 VALID 171000/171400 LFPW
LFFF PARIS FIR/UIR SEV TURB FCST WI N4700 E00215 - N4715 E00200 - N4715 E00030 - N5030 E00315 - N5000 E00500 - N4700 E00215 FL250/350 MOV E 20KT INTSF=



MET'MAP, your aeronautical weather chart ! - Copyright ORBIFLY December 2007 - Disclaimer

ORBIFLY MET'MAP TEAM :

Programming & Development : Alexandra Zaïnal
Concept & Development : Baudouin d'Aumeries
Co-Development & Prog : Marc-Olivier Méhu
Technical & hardware support : Manuel Goepfert

Contact : metmap@orbifly.com




SOURCES & CREDITS :

   NOAA